createdAt,value
2023-03-15T00:02:10.778Z,8.00
2023-03-15T00:04:39.844Z,3.73
2023-03-15T00:07:07.510Z,8.20
2023-03-15T00:09:35.164Z,8.33
2023-03-15T00:12:03.399Z,5.60
2023-03-15T00:14:31.641Z,4.33
2023-03-15T00:16:59.308Z,7.20
2023-03-15T00:19:27.244Z,4.20
2023-03-15T00:21:56.298Z,4.17
2023-03-15T00:24:25.142Z,6.70
2023-03-15T00:26:52.929Z,8.00
2023-03-15T00:29:20.616Z,4.23
2023-03-15T00:31:48.283Z,3.87
2023-03-15T00:34:15.991Z,5.33
2023-03-15T00:36:43.956Z,5.43
2023-03-15T00:39:15.305Z,6.67
2023-03-15T00:41:46.006Z,4.33
2023-03-15T00:44:13.862Z,8.70
2023-03-15T00:46:41.525Z,6.13
2023-03-15T00:49:09.290Z,3.47
2023-03-15T00:51:37.477Z,6.57
2023-03-15T00:54:05.132Z,7.63
2023-03-15T00:56:34.244Z,3.60
2023-03-15T00:59:01.924Z,5.70
2023-03-15T01:01:31.028Z,3.13
2023-03-15T01:03:58.777Z,4.97
2023-03-15T01:06:29.250Z,3.80
2023-03-15T01:08:57.545Z,2.10
2023-03-15T01:11:30.858Z,7.10
2023-03-15T01:14:00.739Z,5.07
2023-03-15T01:16:29.409Z,5.93
2023-03-15T01:18:57.576Z,4.73
2023-03-15T01:21:25.502Z,6.60
2023-03-15T01:23:53.951Z,7.80
2023-03-15T01:26:21.710Z,5.60
2023-03-15T01:28:49.519Z,3.13
2023-03-15T01:31:22.302Z,4.83
2023-03-15T01:33:50.017Z,4.33
2023-03-15T01:36:18.535Z,11.73
2023-03-15T01:38:46.702Z,6.67
2023-03-15T01:41:15.611Z,3.63
2023-03-15T01:43:47.133Z,6.00
2023-03-15T01:46:27.437Z,4.30
2023-03-15T01:49:00.862Z,4.87
2023-03-15T01:51:35.197Z,7.73
2023-03-15T01:54:07.935Z,5.33
2023-03-15T01:56:39.575Z,6.00
2023-03-15T01:59:12.492Z,4.87
2023-03-15T02:01:45.641Z,7.13
2023-03-15T02:04:18.478Z,4.03
2023-03-15T02:06:47.718Z,6.60
2023-03-15T02:09:19.104Z,5.27
2023-03-15T02:11:47.248Z,4.50
2023-03-15T02:14:16.303Z,5.20
2023-03-15T02:16:45.751Z,4.57
2023-03-15T02:19:25.788Z,8.63
2023-03-15T02:22:03.044Z,3.93
2023-03-15T02:24:40.212Z,6.37
2023-03-15T02:27:08.075Z,8.27
2023-03-15T02:29:37.329Z,4.73
2023-03-15T02:32:07.281Z,6.97
2023-03-15T02:34:34.948Z,7.63
2023-03-15T02:37:02.701Z,6.43
2023-03-15T02:39:30.406Z,3.50
2023-03-15T02:41:59.500Z,3.87
2023-03-15T02:44:30.289Z,6.47
2023-03-15T02:47:04.464Z,6.17
2023-03-15T02:49:36.251Z,4.17
2023-03-15T02:52:04.423Z,5.00
2023-03-15T02:54:34.320Z,4.93
2023-03-15T02:57:02.578Z,3.07
2023-03-15T02:59:30.310Z,4.43
2023-03-15T03:01:59.532Z,3.53
2023-03-15T03:04:27.282Z,5.13
2023-03-15T03:06:55.095Z,5.57
2023-03-15T03:09:23.475Z,2.70
2023-03-15T03:11:51.185Z,5.90
2023-03-15T03:14:18.956Z,3.73
2023-03-15T03:16:46.679Z,5.17
2023-03-15T03:19:15.852Z,3.00
2023-03-15T03:21:44.347Z,8.10
2023-03-15T03:24:16.227Z,3.67
2023-03-15T03:26:46.220Z,4.53
2023-03-15T03:29:16.685Z,6.27
2023-03-15T03:31:45.312Z,6.77
2023-03-15T03:34:15.601Z,7.23
2023-03-15T03:36:45.238Z,8.07
2023-03-15T03:39:13.417Z,6.43
2023-03-15T03:41:41.595Z,10.63
2023-03-15T03:44:09.344Z,6.43
2023-03-15T03:46:37.349Z,7.67
2023-03-15T03:49:05.051Z,4.53
2023-03-15T03:51:34.109Z,7.97
2023-03-15T03:54:03.809Z,9.43
2023-03-15T03:56:31.900Z,5.47
2023-03-15T03:58:59.660Z,5.60
2023-03-15T04:01:27.420Z,6.47
2023-03-15T04:03:55.069Z,6.57
2023-03-15T04:06:23.793Z,6.67
2023-03-15T04:08:51.443Z,5.87
2023-03-15T04:11:20.438Z,5.90
2023-03-15T04:13:48.293Z,6.43
2023-03-15T04:16:16.208Z,7.83
2023-03-15T04:18:43.870Z,5.63
2023-03-15T04:21:11.856Z,7.23
2023-03-15T04:23:40.367Z,6.40
2023-03-15T04:26:08.018Z,9.77
2023-03-15T04:28:38.091Z,11.53
2023-03-15T04:31:10.531Z,8.80
2023-03-15T04:33:38.344Z,10.43
2023-03-15T04:36:06.427Z,6.90
2023-03-15T04:38:35.489Z,9.03
2023-03-15T04:41:10.744Z,4.50
2023-03-15T04:43:40.029Z,13.37
2023-03-15T04:46:08.028Z,5.40
2023-03-15T04:48:35.998Z,9.10
2023-03-15T04:51:03.752Z,8.67
2023-03-15T04:53:31.673Z,7.23
2023-03-15T04:55:59.839Z,9.47
2023-03-15T04:58:27.492Z,10.10
2023-03-15T05:00:56.517Z,4.90
2023-03-15T05:03:24.365Z,6.57
2023-03-15T05:05:52.097Z,10.23
2023-03-15T05:08:19.780Z,9.83
2023-03-15T05:10:47.724Z,10.77
2023-03-15T05:13:15.342Z,9.37
2023-03-15T05:15:43.064Z,8.20
2023-03-15T05:18:12.308Z,13.27
2023-03-15T05:20:39.975Z,6.57
2023-03-15T05:23:07.692Z,11.00
2023-03-15T05:25:37.650Z,8.67
2023-03-15T05:28:06.804Z,8.30
2023-03-15T05:30:34.543Z,7.33
2023-03-15T05:33:04.723Z,10.70
2023-03-15T05:35:33.906Z,10.27
2023-03-15T05:38:01.647Z,7.77
2023-03-15T05:40:30.490Z,6.83
2023-03-15T05:42:58.125Z,9.43
2023-03-15T05:45:25.987Z,10.90
2023-03-15T05:47:53.657Z,11.43
2023-03-15T05:50:21.977Z,12.37
2023-03-15T05:52:53.015Z,9.43
2023-03-15T05:55:20.987Z,10.97
2023-03-15T05:57:48.743Z,10.10
2023-03-15T06:00:17.640Z,6.60
2023-03-15T06:02:47.040Z,19.10
2023-03-15T06:05:14.816Z,6.33
2023-03-15T06:07:42.789Z,10.40
2023-03-15T06:10:14.133Z,6.53
2023-03-15T06:12:41.924Z,10.77
2023-03-15T06:15:10.839Z,8.47
2023-03-15T06:17:40.899Z,11.00
2023-03-15T06:20:09.453Z,9.60
2023-03-15T06:22:37.227Z,9.53
2023-03-15T06:25:05.529Z,6.60
2023-03-15T06:27:34.818Z,9.37
2023-03-15T06:30:02.873Z,13.87
2023-03-15T06:32:30.970Z,7.77
2023-03-15T06:34:58.699Z,13.93
2023-03-15T06:37:35.030Z,10.87
2023-03-15T06:40:06.035Z,6.53
2023-03-15T06:42:35.276Z,11.13
2023-03-15T06:45:03.406Z,13.87
2023-03-15T06:47:31.203Z,13.47
2023-03-15T06:49:58.899Z,10.43
2023-03-15T06:52:26.617Z,7.90
2023-03-15T06:54:54.511Z,7.53
2023-03-15T06:57:22.236Z,9.67
2023-03-15T06:59:51.640Z,9.90
2023-03-15T07:02:20.209Z,8.90
2023-03-15T07:04:49.436Z,9.83
2023-03-15T07:07:17.735Z,11.50
2023-03-15T07:09:45.926Z,8.90
2023-03-15T07:12:14.252Z,9.43
2023-03-15T07:14:41.956Z,7.83
2023-03-15T07:17:11.480Z,11.77
2023-03-15T07:19:46.773Z,14.10
2023-03-15T07:22:22.951Z,11.87
2023-03-15T07:24:51.194Z,7.60
2023-03-15T07:27:19.884Z,13.60
2023-03-15T07:29:48.653Z,13.40
2023-03-15T07:32:17.965Z,11.27
2023-03-15T07:34:45.710Z,11.30
2023-03-15T07:37:13.493Z,14.47
2023-03-15T07:39:41.296Z,11.70
2023-03-15T07:42:09.670Z,12.20
2023-03-15T07:44:37.405Z,14.53
2023-03-15T07:47:05.560Z,13.53
2023-03-15T07:49:35.368Z,17.70
2023-03-15T07:52:03.592Z,12.20
2023-03-15T07:54:31.907Z,15.20
2023-03-15T07:56:59.657Z,10.23
2023-03-15T07:59:27.389Z,12.83
2023-03-15T08:01:55.488Z,11.53
2023-03-15T08:04:23.499Z,15.33
2023-03-15T08:06:52.928Z,9.17
2023-03-15T08:09:20.654Z,14.90
2023-03-15T08:11:48.272Z,12.80
2023-03-15T08:14:16.095Z,10.50
2023-03-15T08:16:43.838Z,40.00
2023-03-15T08:19:11.566Z,18.03
2023-03-15T08:21:39.338Z,19.00
2023-03-15T08:24:09.106Z,26.33
2023-03-15T08:26:36.808Z,19.40
2023-03-15T08:29:05.033Z,15.77
2023-03-15T08:31:32.929Z,8.37
2023-03-15T08:34:00.669Z,11.63
2023-03-15T08:36:28.621Z,10.40
2023-03-15T08:38:56.429Z,9.17
2023-03-15T08:41:25.701Z,9.67
2023-03-15T08:43:53.428Z,12.53
2023-03-15T08:46:22.187Z,8.83
2023-03-15T08:48:50.093Z,10.67
2023-03-15T08:51:17.927Z,12.43
2023-03-15T08:53:45.541Z,9.30
2023-03-15T08:56:13.596Z,12.70
2023-03-15T08:58:42.777Z,7.47
2023-03-15T09:01:12.671Z,8.13
2023-03-15T09:03:42.443Z,11.27
2023-03-15T09:06:10.846Z,7.10
2023-03-15T09:08:38.652Z,8.63
2023-03-15T09:11:06.726Z,8.00
2023-03-15T09:13:34.843Z,5.57
2023-03-15T09:16:04.250Z,5.97
2023-03-15T09:18:34.040Z,8.17
2023-03-15T09:21:01.874Z,10.33
2023-03-15T09:23:29.483Z,7.40
2023-03-15T09:25:57.249Z,9.47
2023-03-15T09:28:26.634Z,4.77
2023-03-15T09:30:54.608Z,9.50
2023-03-15T09:33:23.924Z,7.17
2023-03-15T09:35:52.779Z,5.97
2023-03-15T09:38:22.094Z,5.97
2023-03-15T09:40:49.905Z,10.10
2023-03-15T09:43:46.936Z,9.07
2023-03-15T09:46:27.626Z,7.00
2023-03-15T09:49:04.845Z,7.10
2023-03-15T09:51:40.303Z,9.03
2023-03-15T09:54:13.802Z,7.80
2023-03-15T09:56:47.065Z,6.67
2023-03-15T09:59:17.588Z,9.30
2023-03-15T10:01:46.719Z,6.27
2023-03-15T10:04:26.583Z,6.43
2023-03-15T10:06:56.671Z,7.27
2023-03-15T10:09:26.591Z,6.73
2023-03-15T10:12:03.766Z,7.27
2023-03-15T10:14:49.405Z,6.33
2023-03-15T10:17:23.368Z,8.03
2023-03-15T10:19:54.482Z,7.63
2023-03-15T10:22:29.527Z,5.70
2023-03-15T10:25:03.216Z,5.67
2023-03-15T10:27:35.539Z,7.00
2023-03-15T10:30:14.209Z,8.80
2023-03-15T10:32:45.747Z,7.60
2023-03-15T10:35:18.756Z,9.60
2023-03-15T10:37:46.554Z,9.00
2023-03-15T10:40:16.356Z,10.97
2023-03-15T10:42:45.740Z,10.47
2023-03-15T10:45:20.890Z,8.17
2023-03-15T10:47:57.688Z,6.70
2023-03-15T10:50:31.640Z,5.87
2023-03-15T10:53:02.308Z,11.20
2023-03-15T10:55:33.940Z,8.13
2023-03-15T10:58:19.548Z,8.37
2023-03-15T11:00:51.850Z,8.20
2023-03-15T11:03:22.256Z,10.50
2023-03-15T11:05:53.339Z,7.20
2023-03-15T11:08:23.209Z,8.27
2023-03-15T11:10:57.528Z,8.50
2023-03-15T11:13:27.438Z,6.60
2023-03-15T11:16:01.458Z,7.73
2023-03-15T11:18:32.100Z,6.77
2023-03-15T11:21:05.199Z,7.17
2023-03-15T11:23:36.572Z,5.57
2023-03-15T11:26:04.772Z,6.13
2023-03-15T11:28:37.165Z,8.33
2023-03-15T11:31:06.364Z,5.80
2023-03-15T11:33:42.590Z,6.03
2023-03-15T11:36:16.674Z,6.17
2023-03-15T11:38:46.249Z,4.23
2023-03-15T11:41:24.741Z,7.37
2023-03-15T11:44:04.038Z,6.57
2023-03-15T11:46:35.558Z,6.67
2023-03-15T11:49:11.679Z,6.33
2023-03-15T11:51:41.045Z,4.67
2023-03-15T11:54:14.527Z,6.20
2023-03-15T11:56:57.140Z,4.93
2023-03-15T11:59:32.667Z,9.20
2023-03-15T12:02:07.523Z,4.93
2023-03-15T12:04:45.868Z,6.83
2023-03-15T12:07:36.727Z,5.10
2023-03-15T12:10:31.796Z,10.77
2023-03-15T12:13:06.678Z,4.70
2023-03-15T12:15:46.980Z,4.80
2023-03-15T12:18:20.959Z,4.73
2023-03-15T12:20:58.153Z,4.73
2023-03-15T12:23:42.528Z,4.90
2023-03-15T12:26:17.682Z,6.70
2023-03-15T12:28:53.437Z,5.10
2023-03-15T12:31:21.819Z,5.97
2023-03-15T12:33:51.986Z,6.50
2023-03-15T12:36:28.990Z,5.23
2023-03-15T12:39:04.381Z,4.13
2023-03-15T12:41:38.311Z,6.87
2023-03-15T12:44:28.104Z,3.93
2023-03-15T12:47:00.727Z,2.90
2023-03-15T12:49:35.071Z,3.97
2023-03-15T12:52:05.562Z,4.27
2023-03-15T12:54:43.328Z,1.93
2023-03-15T12:57:13.580Z,2.73
2023-03-15T12:59:51.490Z,2.40
2023-03-15T13:02:41.726Z,3.93
2023-03-15T13:05:18.882Z,2.37
2023-03-15T13:08:09.640Z,1.93
2023-03-15T13:10:48.256Z,3.27
2023-03-15T13:13:31.058Z,2.93
2023-03-15T13:16:09.822Z,5.17
2023-03-15T13:18:48.577Z,2.07
2023-03-15T13:21:21.104Z,2.07
2023-03-15T13:23:52.251Z,2.70
2023-03-15T13:26:36.093Z,1.77
2023-03-15T13:29:14.268Z,3.17
2023-03-15T13:31:42.509Z,5.70
2023-03-15T13:34:18.469Z,4.07
2023-03-15T13:36:48.513Z,3.77
2023-03-15T13:39:20.693Z,6.10
2023-03-15T13:41:50.194Z,4.93
2023-03-15T13:44:20.754Z,2.90
2023-03-15T13:46:50.043Z,2.67
2023-03-15T13:49:19.091Z,2.73
2023-03-15T13:51:48.534Z,4.37
2023-03-15T13:54:19.689Z,3.17
2023-03-15T13:56:58.200Z,4.90
2023-03-15T13:59:32.559Z,6.97
2023-03-15T14:02:03.470Z,2.37
2023-03-15T14:04:37.568Z,2.97
2023-03-15T14:07:19.986Z,5.33
2023-03-15T14:09:47.733Z,6.50
2023-03-15T14:12:23.809Z,3.03
2023-03-15T14:14:53.621Z,2.60
2023-03-15T14:17:27.616Z,1.70
2023-03-15T14:19:57.034Z,1.80
2023-03-15T14:22:31.959Z,1.90
2023-03-15T14:24:59.824Z,2.60
2023-03-15T14:27:30.580Z,2.37
2023-03-15T14:30:00.031Z,3.17
2023-03-15T14:32:30.157Z,10.23
2023-03-15T14:35:02.102Z,3.33
2023-03-15T14:37:33.227Z,5.27
2023-03-15T14:40:21.271Z,2.60
2023-03-15T14:42:51.676Z,3.73
2023-03-15T14:45:22.239Z,1.97
2023-03-15T14:47:57.245Z,1.80
2023-03-15T14:50:27.473Z,1.57
2023-03-15T14:52:55.640Z,2.43
2023-03-15T14:55:38.953Z,2.93
2023-03-15T14:58:13.686Z,1.80
2023-03-15T15:00:42.181Z,3.67
2023-03-15T15:03:18.452Z,7.33
2023-03-15T15:05:47.364Z,2.73
2023-03-15T15:08:17.903Z,3.33
2023-03-15T15:10:48.090Z,2.23
2023-03-15T15:13:20.245Z,1.80
2023-03-15T15:15:55.513Z,4.03
2023-03-15T15:18:25.000Z,2.07
2023-03-15T15:20:55.538Z,1.83
2023-03-15T15:23:25.665Z,2.73
2023-03-15T15:25:56.975Z,3.97
2023-03-15T15:28:35.253Z,2.73
2023-03-15T15:31:05.904Z,2.63
2023-03-15T15:33:34.163Z,2.23
2023-03-15T15:36:02.757Z,1.57
2023-03-15T15:38:34.839Z,2.60
2023-03-15T15:41:02.742Z,2.63
2023-03-15T15:43:33.586Z,7.80
2023-03-15T15:46:01.943Z,3.67
2023-03-15T15:48:29.875Z,6.63
2023-03-15T15:50:57.760Z,2.80
2023-03-15T15:53:25.794Z,1.47
2023-03-15T15:55:53.536Z,3.10
2023-03-15T15:58:22.947Z,3.23
2023-03-15T16:00:52.070Z,3.30
2023-03-15T16:03:19.866Z,1.63
2023-03-15T16:05:47.837Z,2.70
2023-03-15T16:08:22.371Z,3.10
2023-03-15T16:10:50.402Z,3.37
2023-03-15T16:13:18.486Z,3.37
2023-03-15T16:15:46.579Z,3.13
2023-03-15T16:18:15.691Z,2.20
2023-03-15T16:20:44.269Z,3.03
2023-03-15T16:23:19.053Z,4.60
2023-03-15T16:25:48.936Z,4.00
2023-03-15T16:28:16.733Z,6.23
2023-03-15T16:30:46.716Z,4.50
2023-03-15T16:33:18.337Z,2.83
2023-03-15T16:35:47.661Z,3.40
2023-03-15T16:38:17.520Z,4.93
2023-03-15T16:40:46.868Z,2.77
2023-03-15T16:43:15.173Z,3.57
2023-03-15T16:45:42.928Z,3.33
2023-03-15T16:48:12.075Z,5.70
2023-03-15T16:50:42.327Z,3.77
2023-03-15T16:53:16.716Z,3.80
2023-03-15T16:55:44.531Z,4.97
2023-03-15T16:58:20.567Z,6.47
2023-03-15T17:00:48.655Z,6.27
2023-03-15T17:03:17.264Z,3.47
2023-03-15T17:05:48.241Z,6.07
2023-03-15T17:08:19.750Z,4.03
2023-03-15T17:10:47.837Z,8.87
2023-03-15T17:13:18.218Z,4.27
2023-03-15T17:15:46.195Z,4.27
2023-03-15T17:18:17.923Z,3.90
2023-03-15T17:20:49.472Z,4.53
2023-03-15T17:23:17.961Z,2.60
2023-03-15T17:25:45.877Z,7.33
2023-03-15T17:28:13.753Z,5.57
2023-03-15T17:30:42.152Z,3.53
2023-03-15T17:33:10.040Z,5.83
2023-03-15T17:35:41.686Z,4.07
2023-03-15T17:38:18.392Z,7.77
2023-03-15T17:40:46.912Z,5.27
2023-03-15T17:43:17.193Z,9.43
2023-03-15T17:45:45.371Z,8.27
2023-03-15T17:48:13.528Z,8.97
2023-03-15T17:50:44.212Z,10.63
2023-03-15T17:53:17.527Z,7.53
2023-03-15T17:55:46.558Z,8.77
2023-03-15T17:58:20.104Z,6.33
2023-03-15T18:00:49.231Z,7.53
2023-03-15T18:03:18.180Z,9.90
2023-03-15T18:05:48.410Z,9.00
2023-03-15T18:08:22.347Z,12.10
2023-03-15T18:10:52.722Z,7.47
2023-03-15T18:13:23.124Z,10.03
2023-03-15T18:15:58.066Z,8.43
2023-03-15T18:18:25.717Z,12.33
2023-03-15T18:20:53.959Z,10.23
2023-03-15T18:23:23.172Z,10.40
2023-03-15T18:25:50.966Z,13.00
2023-03-15T18:28:18.829Z,12.83
2023-03-15T18:30:46.577Z,22.97
2023-03-15T18:33:15.680Z,25.37
2023-03-15T18:35:43.552Z,34.97
2023-03-15T18:38:11.361Z,24.70
2023-03-15T18:40:40.654Z,29.20
2023-03-15T18:43:08.668Z,21.97
2023-03-15T18:45:37.485Z,25.57
2023-03-15T18:48:05.636Z,23.87
2023-03-15T18:50:34.444Z,13.97
2023-03-15T18:53:04.975Z,13.37
2023-03-15T18:55:33.450Z,16.27
2023-03-15T18:58:02.716Z,15.43
2023-03-15T19:00:35.974Z,12.80
2023-03-15T19:03:05.622Z,13.13
2023-03-15T19:05:36.185Z,11.57
2023-03-15T19:08:04.300Z,14.40
2023-03-15T19:10:32.027Z,14.70
2023-03-15T19:12:59.843Z,21.03
2023-03-15T19:15:29.308Z,13.33
2023-03-15T19:17:57.129Z,14.83
2023-03-15T19:20:24.942Z,15.00
2023-03-15T19:22:53.665Z,14.47
2023-03-15T19:25:22.286Z,15.23
2023-03-15T19:27:49.972Z,17.87
2023-03-15T19:30:20.890Z,15.23
2023-03-15T19:32:50.896Z,14.93
2023-03-15T19:35:19.537Z,15.33
2023-03-15T19:37:49.061Z,14.17
2023-03-15T19:40:18.521Z,16.60
2023-03-15T19:42:46.671Z,19.63
2023-03-15T19:45:15.480Z,13.03
2023-03-15T19:47:43.619Z,17.53
2023-03-15T19:50:15.063Z,15.17
2023-03-15T19:52:46.623Z,13.53
2023-03-15T19:55:15.197Z,12.70
2023-03-15T19:57:43.060Z,13.03
2023-03-15T20:00:16.217Z,15.90
2023-03-15T20:02:44.909Z,15.43
2023-03-15T20:05:15.952Z,20.20
2023-03-15T20:07:44.158Z,18.53
2023-03-15T20:10:13.340Z,20.93
2023-03-15T20:12:42.361Z,14.43
2023-03-15T20:15:11.832Z,13.03
2023-03-15T20:17:39.834Z,11.00
2023-03-15T20:20:10.343Z,18.77
2023-03-15T20:22:41.517Z,18.90
2023-03-15T20:25:10.033Z,14.30
2023-03-15T20:27:38.245Z,12.87
2023-03-15T20:30:06.836Z,12.27
2023-03-15T20:32:35.870Z,14.97
2023-03-15T20:35:08.876Z,11.33
2023-03-15T20:37:40.551Z,13.57
2023-03-15T20:40:10.783Z,10.40
2023-03-15T20:42:38.532Z,12.30
2023-03-15T20:45:07.374Z,12.37
2023-03-15T20:47:35.321Z,12.73
2023-03-15T20:50:03.071Z,15.23
2023-03-15T20:52:32.140Z,12.13
2023-03-15T20:55:01.435Z,16.80
2023-03-15T20:57:29.198Z,11.53
2023-03-15T20:59:57.002Z,15.10
2023-03-15T21:02:24.891Z,17.33
2023-03-15T21:04:52.898Z,18.53
2023-03-15T21:07:20.577Z,15.30
2023-03-15T21:09:48.253Z,20.17
2023-03-15T21:12:17.462Z,14.70
2023-03-15T21:14:45.210Z,14.67
2023-03-15T21:17:14.629Z,15.60
2023-03-15T21:19:42.888Z,17.17
2023-03-15T21:22:10.721Z,24.23
2023-03-15T21:24:52.852Z,32.47
2023-03-15T21:27:22.218Z,28.10
2023-03-15T21:29:49.919Z,19.37
2023-03-15T21:32:17.670Z,17.80
2023-03-15T21:34:45.368Z,16.83
2023-03-15T21:37:13.146Z,19.60
2023-03-15T21:39:42.148Z,18.37
2023-03-15T21:42:09.772Z,22.10
2023-03-15T21:44:38.956Z,19.97
2023-03-15T21:47:06.649Z,19.03
2023-03-15T21:49:34.368Z,19.57
2023-03-15T21:52:02.491Z,20.77
2023-03-15T21:54:30.280Z,18.80
2023-03-15T21:56:58.003Z,21.87
2023-03-15T21:59:27.819Z,23.57
2023-03-15T22:01:58.080Z,21.97
2023-03-15T22:04:25.965Z,20.20
2023-03-15T22:06:53.941Z,15.60
2023-03-15T22:09:23.223Z,19.23
2023-03-15T22:11:51.074Z,20.17
2023-03-15T22:14:19.432Z,14.60
2023-03-15T22:16:47.107Z,15.33
2023-03-15T22:19:16.221Z,26.60
2023-03-15T22:21:44.080Z,20.70
2023-03-15T22:24:12.113Z,19.43
2023-03-15T22:26:41.022Z,21.83
2023-03-15T22:29:08.771Z,20.87
2023-03-15T22:31:38.077Z,15.90
2023-03-15T22:34:06.029Z,14.90
2023-03-15T22:36:35.194Z,15.17
2023-03-15T22:39:04.084Z,17.47
2023-03-15T22:41:32.132Z,12.13
2023-03-15T22:43:59.796Z,13.43
2023-03-15T22:46:27.538Z,14.73
2023-03-15T22:48:55.609Z,12.30
2023-03-15T22:51:23.356Z,12.20
2023-03-15T22:53:52.460Z,15.00
2023-03-15T22:56:20.405Z,13.80
2023-03-15T22:58:48.748Z,9.83
2023-03-15T23:01:16.492Z,12.87
2023-03-15T23:03:44.296Z,11.90
2023-03-15T23:06:12.068Z,12.63
2023-03-15T23:08:39.803Z,13.63
2023-03-15T23:11:08.812Z,14.70
2023-03-15T23:13:36.508Z,14.47
2023-03-15T23:16:04.802Z,13.03
2023-03-15T23:18:34.158Z,13.13
2023-03-15T23:21:06.845Z,16.90
2023-03-15T23:23:34.716Z,12.50
2023-03-15T23:26:03.888Z,15.33
2023-03-15T23:28:33.786Z,13.13
2023-03-15T23:31:02.497Z,11.73
2023-03-15T23:33:30.270Z,13.90
2023-03-15T23:35:58.302Z,10.23
2023-03-15T23:38:26.039Z,13.33
2023-03-15T23:40:57.833Z,14.50
2023-03-15T23:43:25.883Z,10.50
2023-03-15T23:45:57.627Z,13.07
2023-03-15T23:48:25.686Z,15.17
2023-03-15T23:50:54.452Z,13.67
2023-03-15T23:53:22.981Z,14.83
2023-03-15T23:55:50.675Z,15.20
2023-03-15T23:58:18.801Z,12.60
